sensor_id;sensor_type;location;lat;lon;timestamp;pressure;altitude;pressure_sealevel;temperature;humidity
68433;BME280;55412;51.350;17.056;2024-02-26T00:01:43;99219.53;;;2.47;80.10
68433;BME280;55412;51.350;17.056;2024-02-26T00:04:12;99211.81;;;2.43;80.00
68433;BME280;55412;51.350;17.056;2024-02-26T00:06:38;99206.66;;;2.40;80.88
68433;BME280;55412;51.350;17.056;2024-02-26T00:09:07;99220.28;;;2.37;80.39
68433;BME280;55412;51.350;17.056;2024-02-26T00:11:34;99223.66;;;2.35;80.39
68433;BME280;55412;51.350;17.056;2024-02-26T00:14:00;99222.75;;;2.31;80.63
68433;BME280;55412;51.350;17.056;2024-02-26T00:16:26;99220.94;;;2.21;79.92
68433;BME280;55412;51.350;17.056;2024-02-26T00:18:52;99212.25;;;2.11;80.30
68433;BME280;55412;51.350;17.056;2024-02-26T00:21:17;99208.03;;;2.13;80.46
68433;BME280;55412;51.350;17.056;2024-02-26T00:23:43;99207.13;;;2.10;80.53
68433;BME280;55412;51.350;17.056;2024-02-26T00:26:09;99207.13;;;2.10;80.80
68433;BME280;55412;51.350;17.056;2024-02-26T00:28:36;99208.00;;;2.10;81.12
68433;BME280;55412;51.350;17.056;2024-02-26T00:31:02;99205.44;;;2.10;81.16
68433;BME280;55412;51.350;17.056;2024-02-26T00:33:28;99205.41;;;2.09;80.72
68433;BME280;55412;51.350;17.056;2024-02-26T00:35:54;99208.81;;;2.08;80.87
68433;BME280;55412;51.350;17.056;2024-02-26T00:38:19;99201.09;;;2.05;81.02
68433;BME280;55412;51.350;17.056;2024-02-26T00:40:45;99215.63;;;2.06;81.23
68433;BME280;55412;51.350;17.056;2024-02-26T00:43:11;99208.75;;;2.05;81.02
68433;BME280;55412;51.350;17.056;2024-02-26T00:45:37;99208.72;;;2.02;81.28
68433;BME280;55412;51.350;17.056;2024-02-26T00:48:03;99213.84;;;2.02;80.84
68433;BME280;55412;51.350;17.056;2024-02-26T00:50:33;99206.06;;;1.94;81.13
68433;BME280;55412;51.350;17.056;2024-02-26T00:53:00;99214.59;;;1.94;81.04
68433;BME280;55412;51.350;17.056;2024-02-26T00:55:25;99209.38;;;1.87;81.16
68433;BME280;55412;51.350;17.056;2024-02-26T00:57:51;99209.28;;;1.81;80.83
68433;BME280;55412;51.350;17.056;2024-02-26T01:00:17;99193.84;;;1.73;80.81
68433;BME280;55412;51.350;17.056;2024-02-26T01:02:43;99203.25;;;1.76;80.54
68433;BME280;55412;51.350;17.056;2024-02-26T01:05:12;99193.81;;;1.72;80.85
68433;BME280;55412;51.350;17.056;2024-02-26T01:07:38;99202.34;;;1.71;80.63
68433;BME280;55412;51.350;17.056;2024-02-26T01:10:08;99194.66;;;1.71;80.62
68433;BME280;55412;51.350;17.056;2024-02-26T01:12:34;99197.19;;;1.69;81.04
68433;BME280;55412;51.350;17.056;2024-02-26T01:15:04;99186.06;;;1.67;81.45
68433;BME280;55412;51.350;17.056;2024-02-26T01:17:30;99195.44;;;1.66;81.06
68433;BME280;55412;51.350;17.056;2024-02-26T01:19:56;99185.13;;;1.60;81.00
68433;BME280;55412;51.350;17.056;2024-02-26T01:22:22;99179.88;;;1.53;80.95
68433;BME280;55412;51.350;17.056;2024-02-26T01:24:48;99181.66;;;1.55;81.16
68433;BME280;55412;51.350;17.056;2024-02-26T01:27:13;99196.16;;;1.58;81.55
68433;BME280;55412;51.350;17.056;2024-02-26T01:29:42;99194.44;;;1.57;81.12
68433;BME280;55412;51.350;17.056;2024-02-26T01:32:08;99201.19;;;1.52;81.11
68433;BME280;55412;51.350;17.056;2024-02-26T01:34:34;99195.19;;;1.50;81.41
68433;BME280;55412;51.350;17.056;2024-02-26T01:37:00;99176.22;;;1.35;80.81
68433;BME280;55412;51.350;17.056;2024-02-26T01:39:26;99186.44;;;1.34;80.68
68433;BME280;55412;51.350;17.056;2024-02-26T01:41:54;99184.66;;;1.31;80.87
68433;BME280;55412;51.350;17.056;2024-02-26T01:44:20;99181.31;;;1.34;81.55
68433;BME280;55412;51.350;17.056;2024-02-26T01:46:45;99175.38;;;1.35;80.93
68433;BME280;55412;51.350;17.056;2024-02-26T01:49:12;99176.94;;;1.27;80.91
68433;BME280;55412;51.350;17.056;2024-02-26T01:51:39;99181.97;;;1.22;81.02
68433;BME280;55412;51.350;17.056;2024-02-26T01:54:07;99179.41;;;1.21;81.42
68433;BME280;55412;51.350;17.056;2024-02-26T01:56:34;99183.59;;;1.17;81.50
68433;BME280;55412;51.350;17.056;2024-02-26T01:59:01;99178.44;;;1.16;81.49
68433;BME280;55412;51.350;17.056;2024-02-26T02:01:29;99168.19;;;1.13;81.90
68433;BME280;55412;51.350;17.056;2024-02-26T02:03:59;99174.19;;;1.15;81.51
68433;BME280;55412;51.350;17.056;2024-02-26T02:06:27;99164.69;;;1.06;81.71
68433;BME280;55412;51.350;17.056;2024-02-26T02:08:56;99168.94;;;1.05;81.44
68433;BME280;55412;51.350;17.056;2024-02-26T02:11:22;99168.06;;;1.03;81.35
68433;BME280;55412;51.350;17.056;2024-02-26T02:13:48;99170.59;;;1.03;81.95
68433;BME280;55412;51.350;17.056;2024-02-26T02:16:13;99172.31;;;1.03;81.70
68433;BME280;55412;51.350;17.056;2024-02-26T02:18:39;99173.97;;;1.02;81.69
68433;BME280;55412;51.350;17.056;2024-02-26T02:21:05;99177.34;;;1.00;81.67
68433;BME280;55412;51.350;17.056;2024-02-26T02:23:31;99173.03;;;0.96;81.82
68433;BME280;55412;51.350;17.056;2024-02-26T02:25:57;99179.88;;;0.97;82.30
68433;BME280;55412;51.350;17.056;2024-02-26T02:28:27;99172.16;;;0.95;82.24
68433;BME280;55412;51.350;17.056;2024-02-26T02:30:54;99163.56;;;0.90;82.02
68433;BME280;55412;51.350;17.056;2024-02-26T02:33:20;99164.34;;;0.86;82.08
68433;BME280;55412;51.350;17.056;2024-02-26T02:35:47;99171.97;;;0.85;81.75
68433;BME280;55412;51.350;17.056;2024-02-26T02:38:13;99173.66;;;0.84;82.31
68433;BME280;55412;51.350;17.056;2024-02-26T02:40:39;99171.94;;;0.81;81.77
68433;BME280;55412;51.350;17.056;2024-02-26T02:43:05;99181.28;;;0.81;81.84
68433;BME280;55412;51.350;17.056;2024-02-26T02:45:31;99179.41;;;0.72;81.69
68433;BME280;55412;51.350;17.056;2024-02-26T02:47:57;99177.66;;;0.70;81.62
68433;BME280;55412;51.350;17.056;2024-02-26T02:50:22;99179.38;;;0.71;81.69
68433;BME280;55412;51.350;17.056;2024-02-26T02:52:48;99184.56;;;0.74;82.49
68433;BME280;55412;51.350;17.056;2024-02-26T02:55:15;99177.00;;;0.80;82.69
68433;BME280;55412;51.350;17.056;2024-02-26T02:57:41;99175.34;;;0.82;82.53
68433;BME280;55412;51.350;17.056;2024-02-26T03:00:09;99177.22;;;0.92;82.69
68433;BME280;55412;51.350;17.056;2024-02-26T03:02:35;99181.50;;;0.95;82.88
68433;BME280;55412;51.350;17.056;2024-02-26T03:05:04;99174.69;;;0.94;82.28
68433;BME280;55412;51.350;17.056;2024-02-26T03:07:30;99177.19;;;0.91;81.95
68433;BME280;55412;51.350;17.056;2024-02-26T03:09:55;99175.34;;;0.82;81.91
68433;BME280;55412;51.350;17.056;2024-02-26T03:12:21;99172.59;;;0.73;81.46
68433;BME280;55412;51.350;17.056;2024-02-26T03:14:47;99158.00;;;0.64;81.71
68433;BME280;55412;51.350;17.056;2024-02-26T03:17:12;99175.03;;;0.65;82.29
68433;BME280;55412;51.350;17.056;2024-02-26T03:19:38;99174.88;;;0.56;81.86
68433;BME280;55412;51.350;17.056;2024-02-26T03:22:04;99168.78;;;0.49;82.47
68433;BME280;55412;51.350;17.056;2024-02-26T03:24:30;99170.44;;;0.47;82.17
68433;BME280;55412;51.350;17.056;2024-02-26T03:26:57;99169.59;;;0.47;82.30
68433;BME280;55412;51.350;17.056;2024-02-26T03:29:23;99174.59;;;0.42;82.83
68433;BME280;55412;51.350;17.056;2024-02-26T03:31:48;99173.72;;;0.40;82.82
68433;BME280;55412;51.350;17.056;2024-02-26T03:34:14;99162.53;;;0.34;82.86
68433;BME280;55412;51.350;17.056;2024-02-26T03:36:41;99168.56;;;0.37;82.70
68433;BME280;55412;51.350;17.056;2024-02-26T03:39:07;99164.25;;;0.35;82.92
68433;BME280;55412;51.350;17.056;2024-02-26T03:41:33;99163.38;;;0.34;82.54
68433;BME280;55412;51.350;17.056;2024-02-26T03:44:00;99168.50;;;0.36;83.05
68433;BME280;55412;51.350;17.056;2024-02-26T03:46:26;99159.88;;;0.29;82.43
68433;BME280;55412;51.350;17.056;2024-02-26T03:48:52;99161.53;;;0.27;82.13
68433;BME280;55412;51.350;17.056;2024-02-26T03:51:18;99160.66;;;0.25;82.85
68433;BME280;55412;51.350;17.056;2024-02-26T03:53:43;99169.16;;;0.24;82.27
68433;BME280;55412;51.350;17.056;2024-02-26T03:56:11;99155.47;;;0.22;82.23
68433;BME280;55412;51.350;17.056;2024-02-26T03:58:38;99158.84;;;0.19;82.24
68433;BME280;55412;51.350;17.056;2024-02-26T04:01:04;99162.19;;;0.17;82.25
68433;BME280;55412;51.350;17.056;2024-02-26T04:03:32;99169.06;;;0.19;82.49
68433;BME280;55412;51.350;17.056;2024-02-26T04:05:58;99171.72;;;0.25;83.21
68433;BME280;55412;51.350;17.056;2024-02-26T04:08:23;99161.53;;;0.27;83.08
68433;BME280;55412;51.350;17.056;2024-02-26T04:10:49;99173.56;;;0.33;82.92
68433;BME280;55412;51.350;17.056;2024-02-26T04:13:15;99168.47;;;0.33;82.71
68433;BME280;55412;51.350;17.056;2024-02-26T04:15:40;99171.84;;;0.32;82.77
68433;BME280;55412;51.350;17.056;2024-02-26T04:18:06;99165.06;;;0.32;83.15
68433;BME280;55412;51.350;17.056;2024-02-26T04:20:32;99166.78;;;0.33;83.37
68433;BME280;55412;51.350;17.056;2024-02-26T04:22:57;99165.09;;;0.35;83.53
68433;BME280;55412;51.350;17.056;2024-02-26T04:25:23;99165.09;;;0.35;83.04
68433;BME280;55412;51.350;17.056;2024-02-26T04:27:49;99167.66;;;0.35;83.00
68433;BME280;55412;51.350;17.056;2024-02-26T04:30:15;99159.16;;;0.36;83.13
68433;BME280;55412;51.350;17.056;2024-02-26T04:32:40;99170.47;;;0.49;83.40
68433;BME280;55412;51.350;17.056;2024-02-26T04:35:06;99171.56;;;0.60;83.80
68433;BME280;55412;51.350;17.056;2024-02-26T04:37:32;99167.38;;;0.65;83.81
68433;BME280;55412;51.350;17.056;2024-02-26T04:39:59;99172.59;;;0.73;83.58
68433;BME280;55412;51.350;17.056;2024-02-26T04:42:25;99164.16;;;0.75;83.39
68433;BME280;55412;51.350;17.056;2024-02-26T04:44:50;99163.34;;;0.78;83.32
68433;BME280;55412;51.350;17.056;2024-02-26T04:47:16;99171.09;;;0.82;83.42
68433;BME280;55412;51.350;17.056;2024-02-26T04:49:42;99166.03;;;0.86;83.27
68433;BME280;55412;51.350;17.056;2024-02-26T04:52:08;99169.56;;;0.92;83.53
68433;BME280;55412;51.350;17.056;2024-02-26T04:54:34;99170.50;;;0.97;82.90
68433;BME280;55412;51.350;17.056;2024-02-26T04:56:59;99175.72;;;1.03;82.92
68433;BME280;55412;51.350;17.056;2024-02-26T04:59:25;99171.53;;;1.10;83.00
68433;BME280;55412;51.350;17.056;2024-02-26T05:01:51;99175.06;;;1.17;83.40
68433;BME280;55412;51.350;17.056;2024-02-26T05:04:18;99173.47;;;1.23;83.29
68433;BME280;55412;51.350;17.056;2024-02-26T05:06:44;99171.00;;;1.29;83.08
68433;BME280;55412;51.350;17.056;2024-02-26T05:09:10;99171.03;;;1.31;83.41
68433;BME280;55412;51.350;17.056;2024-02-26T05:11:35;99179.56;;;1.31;83.31
68433;BME280;55412;51.350;17.056;2024-02-26T05:14:01;99180.41;;;1.30;83.13
68433;BME280;55412;51.350;17.056;2024-02-26T05:16:27;99181.22;;;1.28;82.83
68433;BME280;55412;51.350;17.056;2024-02-26T05:18:53;99182.06;;;1.27;82.97
68433;BME280;55412;51.350;17.056;2024-02-26T05:21:18;99185.50;;;1.30;82.89
68433;BME280;55412;51.350;17.056;2024-02-26T05:23:44;99172.75;;;1.32;83.08
68433;BME280;55412;51.350;17.056;2024-02-26T05:26:10;99178.81;;;1.38;83.54
68433;BME280;55412;51.350;17.056;2024-02-26T05:28:37;99175.41;;;1.39;83.12
68433;BME280;55412;51.350;17.056;2024-02-26T05:31:05;99187.41;;;1.42;83.18
68433;BME280;55412;51.350;17.056;2024-02-26T05:33:31;99185.69;;;1.41;83.13
68433;BME280;55412;51.350;17.056;2024-02-26T05:35:56;99187.41;;;1.41;83.24
68433;BME280;55412;51.350;17.056;2024-02-26T05:38:22;99185.78;;;1.47;83.39
68433;BME280;55412;51.350;17.056;2024-02-26T05:40:48;99175.47;;;1.43;83.10
68433;BME280;55412;51.350;17.056;2024-02-26T05:43:14;99177.97;;;1.39;82.76
68433;BME280;55412;51.350;17.056;2024-02-26T05:45:42;99180.59;;;1.43;83.21
68433;BME280;55412;51.350;17.056;2024-02-26T05:48:08;99184.13;;;1.51;83.24
68433;BME280;55412;51.350;17.056;2024-02-26T05:50:33;99189.31;;;1.55;83.52
68433;BME280;55412;51.350;17.056;2024-02-26T05:52:59;99184.22;;;1.57;82.89
68433;BME280;55412;51.350;17.056;2024-02-26T05:55:25;99196.19;;;1.59;82.88
68433;BME280;55412;51.350;17.056;2024-02-26T05:57:51;99186.78;;;1.58;82.85
68433;BME280;55412;51.350;17.056;2024-02-26T06:00:17;99203.00;;;1.60;82.95
68433;BME280;55412;51.350;17.056;2024-02-26T06:02:42;99197.00;;;1.57;82.65
68433;BME280;55412;51.350;17.056;2024-02-26T06:05:08;99185.00;;;1.53;82.28
68433;BME280;55412;51.350;17.056;2024-02-26T06:07:34;99189.44;;;1.64;82.66
68433;BME280;55412;51.350;17.056;2024-02-26T06:10:00;99190.31;;;1.66;82.87
68433;BME280;55412;51.350;17.056;2024-02-26T06:12:26;99194.66;;;1.71;82.94
68433;BME280;55412;51.350;17.056;2024-02-26T06:14:54;99205.00;;;1.78;82.47
68433;BME280;55412;51.350;17.056;2024-02-26T06:17:20;99205.97;;;1.88;82.71
68433;BME280;55412;51.350;17.056;2024-02-26T06:19:46;99198.31;;;1.89;82.57
68433;BME280;55412;51.350;17.056;2024-02-26T06:22:11;99204.47;;;2.01;82.62
68433;BME280;55412;51.350;17.056;2024-02-26T06:24:37;99196.06;;;2.12;82.92
68433;BME280;55412;51.350;17.056;2024-02-26T06:27:03;99199.59;;;2.20;83.32
68433;BME280;55412;51.350;17.056;2024-02-26T06:29:29;99207.41;;;2.33;83.09
68433;BME280;55412;51.350;17.056;2024-02-26T06:31:54;99209.31;;;2.47;82.79
68433;BME280;55412;51.350;17.056;2024-02-26T06:34:20;99208.59;;;2.61;83.17
68433;BME280;55412;51.350;17.056;2024-02-26T06:36:46;99212.19;;;2.75;82.91
68433;BME280;55412;51.350;17.056;2024-02-26T06:39:12;99201.22;;;2.90;82.74
68433;BME280;55412;51.350;17.056;2024-02-26T06:41:38;99205.63;;;3.03;82.79
68433;BME280;55412;51.350;17.056;2024-02-26T06:44:05;99204.06;;;3.20;82.82
68433;BME280;55412;51.350;17.056;2024-02-26T06:46:31;99201.63;;;3.34;82.58
68433;BME280;55412;51.350;17.056;2024-02-26T06:48:57;99200.88;;;3.47;82.56
68433;BME280;55412;51.350;17.056;2024-02-26T06:51:22;99198.38;;;3.56;82.44
68433;BME280;55412;51.350;17.056;2024-02-26T06:53:49;99192.44;;;3.65;82.48
68433;BME280;55412;51.350;17.056;2024-02-26T06:56:15;99198.50;;;3.76;82.39
68433;BME280;55412;51.350;17.056;2024-02-26T06:58:40;99193.44;;;3.88;82.36
68433;BME280;55412;51.350;17.056;2024-02-26T07:01:06;99200.41;;;4.05;82.08
68433;BME280;55412;51.350;17.056;2024-02-26T07:03:34;99202.16;;;4.16;82.18
68433;BME280;55412;51.350;17.056;2024-02-26T07:05:59;99204.78;;;4.30;82.08
68433;BME280;55412;51.350;17.056;2024-02-26T07:08:25;99201.41;;;4.42;82.45
68433;BME280;55412;51.350;17.056;2024-02-26T07:10:51;99204.03;;;4.53;82.33
68433;BME280;55412;51.350;17.056;2024-02-26T07:13:17;99192.94;;;4.66;82.21
68433;BME280;55412;51.350;17.056;2024-02-26T07:15:42;99192.97;;;4.80;82.13
68433;BME280;55412;51.350;17.056;2024-02-26T07:18:08;99199.00;;;4.95;81.83
68433;BME280;55412;51.350;17.056;2024-02-26T07:20:35;99198.16;;;5.09;82.21
68433;BME280;55412;51.350;17.056;2024-02-26T07:23:01;99198.16;;;5.21;82.33
68433;BME280;55412;51.350;17.056;2024-02-26T07:25:27;99199.91;;;5.37;82.44
68433;BME280;55412;51.350;17.056;2024-02-26T07:27:52;99213.59;;;5.48;81.79
68433;BME280;55412;51.350;17.056;2024-02-26T07:30:18;99203.31;;;5.61;81.76
68433;BME280;55412;51.350;17.056;2024-02-26T07:32:44;99206.72;;;5.76;82.10
68433;BME280;55412;51.350;17.056;2024-02-26T07:35:10;99210.16;;;5.94;81.58
68433;BME280;55412;51.350;17.056;2024-02-26T07:37:35;99203.28;;;6.03;81.05
68433;BME280;55412;51.350;17.056;2024-02-26T07:40:01;99213.53;;;6.20;81.35
68433;BME280;55412;51.350;17.056;2024-02-26T07:42:27;99208.34;;;6.32;81.67
68433;BME280;55412;51.350;17.056;2024-02-26T07:44:52;99206.56;;;6.45;81.63
68433;BME280;55412;51.350;17.056;2024-02-26T07:47:19;99211.69;;;6.56;81.07
68433;BME280;55412;51.350;17.056;2024-02-26T07:49:44;99211.63;;;6.65;81.81
68433;BME280;55412;51.350;17.056;2024-02-26T07:52:10;99211.56;;;6.79;81.17
68433;BME280;55412;51.350;17.056;2024-02-26T07:54:36;99206.34;;;6.91;81.22
68433;BME280;55412;51.350;17.056;2024-02-26T07:57:02;99213.13;;;7.04;81.06
68433;BME280;55412;51.350;17.056;2024-02-26T07:59:31;99198.47;;;7.12;81.81
68433;BME280;55412;51.350;17.056;2024-02-26T08:01:57;99204.38;;;7.28;81.31
68433;BME280;55412;51.350;17.056;2024-02-26T08:04:23;99212.03;;;7.39;81.13
68433;BME280;55412;51.350;17.056;2024-02-26T08:06:48;99217.97;;;7.48;80.55
68433;BME280;55412;51.350;17.056;2024-02-26T08:09:14;99217.91;;;7.58;80.93
68433;BME280;55412;51.350;17.056;2024-02-26T08:11:40;99206.63;;;7.68;80.52
68433;BME280;55412;51.350;17.056;2024-02-26T08:14:05;99218.56;;;7.78;80.76
68433;BME280;55412;51.350;17.056;2024-02-26T08:16:31;99205.59;;;7.84;81.06
68433;BME280;55412;51.350;17.056;2024-02-26T08:18:57;99207.22;;;7.94;81.03
68433;BME280;55412;51.350;17.056;2024-02-26T08:21:23;99214.84;;;8.05;80.70
68433;BME280;55412;51.350;17.056;2024-02-26T08:23:48;99213.91;;;8.15;80.47
68433;BME280;55412;51.350;17.056;2024-02-26T08:26:14;99225.88;;;8.22;80.32
68433;BME280;55412;51.350;17.056;2024-02-26T08:28:40;99212.88;;;8.30;80.54
68433;BME280;55412;51.350;17.056;2024-02-26T08:31:06;99201.59;;;8.37;80.30
68433;BME280;55412;51.350;17.056;2024-02-26T08:33:32;99208.38;;;8.49;80.50
68433;BME280;55412;51.350;17.056;2024-02-26T08:36:04;99198.84;;;8.52;79.98
68433;BME280;55412;51.350;17.056;2024-02-26T08:38:30;99210.81;;;8.61;80.63
68433;BME280;55412;51.350;17.056;2024-02-26T08:40:56;99198.59;;;8.71;80.35
68433;BME280;55412;51.350;17.056;2024-02-26T08:43:21;99219.16;;;8.80;80.20
68433;BME280;55412;51.350;17.056;2024-02-26T08:45:47;99206.97;;;8.90;80.47
68433;BME280;55412;51.350;17.056;2024-02-26T08:48:13;99200.84;;;8.97;80.15
68433;BME280;55412;51.350;17.056;2024-02-26T08:50:38;99209.34;;;9.05;80.22
68433;BME280;55412;51.350;17.056;2024-02-26T08:53:04;99205.78;;;9.10;80.31
68433;BME280;55412;51.350;17.056;2024-02-26T08:55:31;99213.44;;;9.20;79.93
68433;BME280;55412;51.350;17.056;2024-02-26T08:57:56;99204.72;;;9.27;80.00
68433;BME280;55412;51.350;17.056;2024-02-26T09:00:22;99208.88;;;9.35;80.00
68433;BME280;55412;51.350;17.056;2024-02-26T09:02:48;99204.41;;;9.45;79.49
68433;BME280;55412;51.350;17.056;2024-02-26T09:05:14;99197.41;;;9.50;80.25
68433;BME280;55412;51.350;17.056;2024-02-26T09:07:40;99196.47;;;9.56;79.42
68433;BME280;55412;51.350;17.056;2024-02-26T09:10:06;99194.66;;;9.59;79.57
68433;BME280;55412;51.350;17.056;2024-02-26T09:12:36;99193.66;;;9.69;79.63
68433;BME280;55412;51.350;17.056;2024-02-26T09:15:02;99202.19;;;9.75;79.42
68433;BME280;55412;51.350;17.056;2024-02-26T09:17:29;99207.25;;;9.81;79.73
68433;BME280;55412;51.350;17.056;2024-02-26T09:19:55;99214.91;;;9.88;79.31
68433;BME280;55412;51.350;17.056;2024-02-26T09:22:20;99213.03;;;9.96;79.42
68433;BME280;55412;51.350;17.056;2024-02-26T09:24:46;99201.66;;;10.04;79.48
68433;BME280;55412;51.350;17.056;2024-02-26T09:27:12;99214.50;;;10.10;78.96
68433;BME280;55412;51.350;17.056;2024-02-26T09:29:38;99211.78;;;10.17;78.58
68433;BME280;55412;51.350;17.056;2024-02-26T09:32:03;99207.34;;;10.24;78.67
68433;BME280;55412;51.350;17.056;2024-02-26T09:34:29;99199.47;;;10.30;78.89
68433;BME280;55412;51.350;17.056;2024-02-26T09:36:55;99205.31;;;10.40;78.85
68433;BME280;55412;51.350;17.056;2024-02-26T09:39:21;99190.47;;;10.46;78.67
68433;BME280;55412;51.350;17.056;2024-02-26T09:41:50;99199.88;;;10.52;78.43
68433;BME280;55412;51.350;17.056;2024-02-26T09:44:19;99201.47;;;10.59;78.23
68433;BME280;55412;51.350;17.056;2024-02-26T09:46:47;99207.41;;;10.64;78.17
68433;BME280;55412;51.350;17.056;2024-02-26T09:49:15;99218.53;;;10.69;78.28
68433;BME280;55412;51.350;17.056;2024-02-26T09:51:41;99221.00;;;10.75;78.13
68433;BME280;55412;51.350;17.056;2024-02-26T09:54:09;99201.81;;;10.83;78.55
68433;BME280;55412;51.350;17.056;2024-02-26T09:56:37;99198.25;;;10.88;77.99
68433;BME280;55412;51.350;17.056;2024-02-26T09:59:06;99198.13;;;10.94;78.09
68433;BME280;55412;51.350;17.056;2024-02-26T10:01:35;99204.72;;;11.07;77.18
68433;BME280;55412;51.350;17.056;2024-02-26T10:04:02;99194.19;;;11.14;77.40
68433;BME280;55412;51.350;17.056;2024-02-26T10:06:29;99203.41;;;11.27;77.03
68433;BME280;55412;51.350;17.056;2024-02-26T10:08:55;99203.22;;;11.34;77.05
68433;BME280;55412;51.350;17.056;2024-02-26T10:11:24;99210.03;;;11.40;77.15
68433;BME280;55412;51.350;17.056;2024-02-26T10:13:50;99203.09;;;11.41;77.18
68433;BME280;55412;51.350;17.056;2024-02-26T10:16:16;99203.06;;;11.42;77.34
68433;BME280;55412;51.350;17.056;2024-02-26T10:18:49;99213.22;;;11.51;76.53
68433;BME280;55412;51.350;17.056;2024-02-26T10:21:19;99213.88;;;11.59;76.87
68433;BME280;55412;51.350;17.056;2024-02-26T10:23:45;99216.47;;;11.59;76.62
68433;BME280;55412;51.350;17.056;2024-02-26T10:26:12;99216.41;;;11.62;76.07
68433;BME280;55412;51.350;17.056;2024-02-26T10:28:39;99210.97;;;11.72;76.22
68433;BME280;55412;51.350;17.056;2024-02-26T10:31:05;99209.16;;;11.75;76.39
68433;BME280;55412;51.350;17.056;2024-02-26T10:33:35;99209.69;;;11.89;75.62
68433;BME280;55412;51.350;17.056;2024-02-26T10:36:05;99213.81;;;11.97;75.83
68433;BME280;55412;51.350;17.056;2024-02-26T10:38:35;99212.00;;;12.00;75.67
68433;BME280;55412;51.350;17.056;2024-02-26T10:41:13;99194.50;;;12.07;75.52
68433;BME280;55412;51.350;17.056;2024-02-26T10:43:40;99210.75;;;12.15;75.79
68433;BME280;55412;51.350;17.056;2024-02-26T10:46:07;99204.53;;;12.21;74.89
68433;BME280;55412;51.350;17.056;2024-02-26T10:48:33;99189.63;;;12.26;75.08
68433;BME280;55412;51.350;17.056;2024-02-26T10:50:59;99208.75;;;12.25;75.02
68433;BME280;55412;51.350;17.056;2024-02-26T10:53:29;99220.94;;;12.23;74.75
68433;BME280;55412;51.350;17.056;2024-02-26T10:56:00;99208.78;;;12.23;74.54
68433;BME280;55412;51.350;17.056;2024-02-26T10:58:27;99209.63;;;12.24;74.44
68433;BME280;55412;51.350;17.056;2024-02-26T11:00:56;99209.38;;;12.33;74.10
68433;BME280;55412;51.350;17.056;2024-02-26T11:03:22;99213.31;;;12.48;74.05
68433;BME280;55412;51.350;17.056;2024-02-26T11:05:49;99211.22;;;12.60;74.69
68433;BME280;55412;51.350;17.056;2024-02-26T11:08:24;99199.72;;;12.67;74.15
68433;BME280;55412;51.350;17.056;2024-02-26T11:10:52;99192.59;;;12.74;73.64
68433;BME280;55412;51.350;17.056;2024-02-26T11:13:19;99193.31;;;12.79;73.80
68433;BME280;55412;51.350;17.056;2024-02-26T11:15:47;99189.81;;;12.80;72.93
68433;BME280;55412;51.350;17.056;2024-02-26T11:18:16;99177.69;;;12.79;73.59
68433;BME280;55412;51.350;17.056;2024-02-26T11:20:43;99188.69;;;12.89;73.35
68433;BME280;55412;51.350;17.056;2024-02-26T11:23:09;99183.03;;;13.03;72.53
68433;BME280;55412;51.350;17.056;2024-02-26T11:25:36;99183.41;;;13.20;72.56
68433;BME280;55412;51.350;17.056;2024-02-26T11:28:15;99168.88;;;13.39;72.33
68433;BME280;55412;51.350;17.056;2024-02-26T11:30:47;99173.06;;;13.43;72.11
68433;BME280;55412;51.350;17.056;2024-02-26T11:33:14;99177.59;;;13.38;71.98
68433;BME280;55412;51.350;17.056;2024-02-26T11:35:40;99180.03;;;13.43;71.55
68433;BME280;55412;51.350;17.056;2024-02-26T11:38:07;99176.53;;;13.44;71.89
68433;BME280;55412;51.350;17.056;2024-02-26T11:40:37;99176.31;;;13.51;71.33
68433;BME280;55412;51.350;17.056;2024-02-26T11:43:06;99182.97;;;13.60;71.59
68433;BME280;55412;51.350;17.056;2024-02-26T11:50:49;99168.22;;;13.59;71.17
68433;BME280;55412;51.350;17.056;2024-02-26T11:53:29;99176.59;;;13.69;70.44
68433;BME280;55412;51.350;17.056;2024-02-26T11:59:10;99167.78;;;13.71;70.17
68433;BME280;55412;51.350;17.056;2024-02-26T12:01:46;99168.75;;;13.69;70.20
68433;BME280;55412;51.350;17.056;2024-02-26T12:04:23;99162.53;;;13.73;70.21
68433;BME280;55412;51.350;17.056;2024-02-26T12:07:00;99164.06;;;13.78;70.16
68433;BME280;55412;51.350;17.056;2024-02-26T12:09:37;99158.53;;;13.88;69.79
68433;BME280;55412;51.350;17.056;2024-02-26T12:12:18;99165.22;;;13.96;69.67
68433;BME280;55412;51.350;17.056;2024-02-26T12:14:55;99160.72;;;14.00;69.62
68433;BME280;55412;51.350;17.056;2024-02-26T12:17:25;99163.28;;;14.01;69.39
68433;BME280;55412;51.350;17.056;2024-02-26T12:19:51;99164.09;;;14.03;69.28
68433;BME280;55412;51.350;17.056;2024-02-26T12:22:19;99166.56;;;14.06;69.30
68433;BME280;55412;51.350;17.056;2024-02-26T12:24:45;99156.19;;;14.05;69.32
68433;BME280;55412;51.350;17.056;2024-02-26T12:27:11;99150.34;;;13.98;69.11
68433;BME280;55412;51.350;17.056;2024-02-26T12:29:37;99160.94;;;13.94;69.06
68433;BME280;55412;51.350;17.056;2024-02-26T12:32:04;99164.44;;;13.93;69.15
68433;BME280;55412;51.350;17.056;2024-02-26T12:34:30;99164.38;;;13.96;68.64
68433;BME280;55412;51.350;17.056;2024-02-26T12:36:56;99161.75;;;13.96;69.15
68433;BME280;55412;51.350;17.056;2024-02-26T12:39:22;99162.63;;;13.95;68.59
68433;BME280;55412;51.350;17.056;2024-02-26T12:41:48;99157.41;;;13.95;69.07
68433;BME280;55412;51.350;17.056;2024-02-26T12:44:16;99158.69;;;14.08;68.27
68433;BME280;55412;51.350;17.056;2024-02-26T12:46:42;99162.00;;;14.13;68.80
68433;BME280;55412;51.350;17.056;2024-02-26T12:49:08;99159.25;;;14.16;68.51
68433;BME280;55412;51.350;17.056;2024-02-26T12:51:34;99155.66;;;14.20;68.32
68433;BME280;55412;51.350;17.056;2024-02-26T12:54:00;99164.53;;;14.15;68.36
68433;BME280;55412;51.350;17.056;2024-02-26T12:56:27;99161.25;;;14.09;68.45
68433;BME280;55412;51.350;17.056;2024-02-26T12:58:54;99157.91;;;14.06;68.28
68433;BME280;55412;51.350;17.056;2024-02-26T13:01:23;99158.81;;;14.05;68.12
68433;BME280;55412;51.350;17.056;2024-02-26T13:03:51;99158.81;;;14.05;67.87